createdAt,value
2022-12-16T00:02:31.568Z,15.40
2022-12-16T00:05:17.529Z,15.40
2022-12-16T00:08:03.328Z,15.30
2022-12-16T00:10:55.191Z,15.30
2022-12-16T00:13:40.932Z,15.30
2022-12-16T00:16:26.331Z,15.30
2022-12-16T00:19:11.946Z,15.30
2022-12-16T00:21:57.638Z,15.30
2022-12-16T00:24:43.139Z,15.30
2022-12-16T00:27:28.779Z,15.30
2022-12-16T00:30:14.348Z,15.30
2022-12-16T00:32:59.954Z,15.30
2022-12-16T00:35:46.181Z,15.30
2022-12-16T00:38:31.607Z,15.30
2022-12-16T00:41:17.175Z,15.20
2022-12-16T00:44:03.373Z,15.30
2022-12-16T00:46:48.766Z,15.30
2022-12-16T00:49:34.411Z,15.20
2022-12-16T00:52:20.045Z,15.20
2022-12-16T00:55:06.051Z,15.20
2022-12-16T00:57:51.539Z,15.20
2022-12-16T01:00:37.088Z,15.20
2022-12-16T01:03:22.906Z,15.20
2022-12-16T01:06:09.371Z,15.20
2022-12-16T01:08:55.077Z,15.20
2022-12-16T01:11:40.739Z,15.20
2022-12-16T01:14:26.350Z,15.20
2022-12-16T01:17:12.058Z,15.10
2022-12-16T01:19:57.621Z,15.20
2022-12-16T01:22:43.256Z,15.10
2022-12-16T01:25:28.930Z,15.10
2022-12-16T01:28:14.636Z,15.10
2022-12-16T01:31:04.317Z,15.10
2022-12-16T01:33:50.681Z,15.10
2022-12-16T01:36:36.198Z,15.00
2022-12-16T01:39:22.111Z,15.10
2022-12-16T01:42:17.499Z,15.00
2022-12-16T01:45:21.819Z,15.00
2022-12-16T01:48:13.867Z,15.00
2022-12-16T01:51:02.574Z,15.00
2022-12-16T01:53:49.219Z,15.00
2022-12-16T01:56:35.546Z,15.00
2022-12-16T01:59:23.150Z,15.00
2022-12-16T02:02:09.061Z,15.00
2022-12-16T02:05:13.386Z,15.00
2022-12-16T02:08:06.491Z,15.00
2022-12-16T02:11:01.730Z,15.00
2022-12-16T02:14:03.843Z,15.00
2022-12-16T02:16:52.645Z,15.00
2022-12-16T02:19:46.870Z,15.00
2022-12-16T02:22:44.759Z,15.00
2022-12-16T02:25:30.323Z,15.00
2022-12-16T02:28:27.073Z,15.00
2022-12-16T02:31:16.230Z,15.00
2022-12-16T02:34:06.508Z,15.00
2022-12-16T02:37:30.365Z,15.00
2022-12-16T02:40:28.699Z,15.00
2022-12-16T02:43:35.015Z,15.00
2022-12-16T02:46:22.559Z,15.00
2022-12-16T02:49:09.001Z,15.00
2022-12-16T02:51:55.821Z,15.00
2022-12-16T02:54:42.067Z,15.00
2022-12-16T02:57:37.983Z,15.00
2022-12-16T03:00:24.133Z,15.00
2022-12-16T03:03:28.102Z,15.00
2022-12-16T03:06:15.982Z,15.00
2022-12-16T03:09:03.346Z,15.00
2022-12-16T03:11:50.669Z,15.00
2022-12-16T03:14:36.860Z,15.00
2022-12-16T03:17:23.536Z,15.00
2022-12-16T03:20:12.214Z,15.00
2022-12-16T03:23:01.780Z,15.00
2022-12-16T03:25:48.397Z,15.00
2022-12-16T03:28:50.796Z,15.00
2022-12-16T03:31:42.705Z,14.90
2022-12-16T03:34:44.980Z,14.90
2022-12-16T03:37:33.845Z,14.90
2022-12-16T03:40:19.901Z,14.90
2022-12-16T03:43:06.871Z,14.90
2022-12-16T03:45:55.001Z,14.90
2022-12-16T03:48:45.500Z,14.90
2022-12-16T03:51:30.950Z,14.90
2022-12-16T03:54:19.019Z,14.90
2022-12-16T03:57:04.468Z,14.90
2022-12-16T03:59:50.118Z,14.90
2022-12-16T04:02:35.940Z,14.90
2022-12-16T04:05:21.442Z,14.90
2022-12-16T04:08:06.982Z,14.90
2022-12-16T04:11:11.511Z,14.90
2022-12-16T04:14:15.831Z,14.80
2022-12-16T04:17:19.850Z,14.90
2022-12-16T04:20:40.545Z,14.80
2022-12-16T04:23:45.086Z,14.80
2022-12-16T04:26:30.558Z,14.80
2022-12-16T04:29:16.072Z,14.80
2022-12-16T04:32:01.876Z,14.80
2022-12-16T04:34:47.528Z,14.80
2022-12-16T04:37:51.897Z,14.80
2022-12-16T04:41:09.927Z,14.80
2022-12-16T04:44:13.908Z,14.70
2022-12-16T04:47:17.901Z,14.70
2022-12-16T04:50:21.971Z,14.70
2022-12-16T04:53:26.038Z,14.70
2022-12-16T04:56:29.898Z,14.70
2022-12-16T04:59:34.092Z,13.80
2022-12-16T05:02:38.203Z,14.70
2022-12-16T05:05:42.101Z,14.70
2022-12-16T05:08:46.241Z,14.70
2022-12-16T05:11:50.328Z,14.70
2022-12-16T05:14:54.397Z,14.70
2022-12-16T05:18:15.085Z,14.70
2022-12-16T05:21:20.015Z,14.70
2022-12-16T05:24:24.121Z,14.70
2022-12-16T05:27:28.158Z,14.70
2022-12-16T05:30:33.950Z,14.70
2022-12-16T05:33:38.009Z,14.80
2022-12-16T05:36:46.444Z,15.00
2022-12-16T05:39:50.881Z,15.20
2022-12-16T05:42:54.696Z,15.40
2022-12-16T05:45:59.201Z,15.50
2022-12-16T05:49:03.102Z,15.60
2022-12-16T05:52:06.937Z,15.60
2022-12-16T05:55:10.875Z,15.70
2022-12-16T05:58:14.797Z,15.70
2022-12-16T06:01:18.820Z,15.80
2022-12-16T06:04:22.637Z,15.80
2022-12-16T06:07:26.675Z,15.70
2022-12-16T06:10:30.753Z,15.60
2022-12-16T06:13:34.847Z,15.60
2022-12-16T06:16:56.301Z,15.50
2022-12-16T06:20:02.345Z,15.50
2022-12-16T06:23:12.867Z,15.40
2022-12-16T06:26:17.370Z,15.40
2022-12-16T06:29:22.922Z,15.30
2022-12-16T06:32:29.524Z,15.30
2022-12-16T06:35:33.593Z,15.30
2022-12-16T06:38:37.525Z,15.30
2022-12-16T06:41:41.464Z,15.20
2022-12-16T06:44:45.459Z,15.20
2022-12-16T06:47:49.487Z,15.20
2022-12-16T06:50:55.673Z,15.20
2022-12-16T06:53:59.911Z,15.20
2022-12-16T06:57:03.868Z,15.20
2022-12-16T07:00:07.805Z,15.30
2022-12-16T07:03:12.837Z,15.20
2022-12-16T07:06:16.714Z,15.10
2022-12-16T07:09:20.543Z,15.10
2022-12-16T07:12:24.534Z,15.20
2022-12-16T07:15:29.243Z,15.20
2022-12-16T07:18:33.270Z,15.30
2022-12-16T07:21:37.325Z,15.30
2022-12-16T07:24:41.183Z,15.20
2022-12-16T07:27:45.256Z,15.20
2022-12-16T07:30:49.080Z,15.10
2022-12-16T07:33:53.073Z,15.00
2022-12-16T07:36:56.982Z,15.00
2022-12-16T07:40:01.322Z,14.90
2022-12-16T07:43:05.770Z,14.90
2022-12-16T07:46:09.649Z,14.90
2022-12-16T07:49:13.688Z,14.90
2022-12-16T07:52:17.495Z,15.00
2022-12-16T07:55:21.637Z,14.90
2022-12-16T07:58:25.650Z,15.00
2022-12-16T08:01:29.557Z,15.00
2022-12-16T08:04:33.484Z,15.00
2022-12-16T08:07:37.461Z,15.00
2022-12-16T08:10:43.134Z,15.00
2022-12-16T08:13:47.527Z,15.00
2022-12-16T08:16:51.815Z,15.00
2022-12-16T08:19:57.037Z,15.00
2022-12-16T08:23:02.232Z,15.00
2022-12-16T08:26:06.240Z,15.10
2022-12-16T08:29:35.054Z,15.00
2022-12-16T08:32:35.564Z,15.00
2022-12-16T08:35:39.456Z,15.00
2022-12-16T08:38:43.425Z,15.00
2022-12-16T08:41:47.510Z,14.80
2022-12-16T08:44:51.368Z,14.90
2022-12-16T08:47:55.683Z,14.90
2022-12-16T08:51:00.105Z,14.90
2022-12-16T08:54:04.325Z,14.90
2022-12-16T08:57:08.116Z,14.80
2022-12-16T09:00:12.107Z,14.80
2022-12-16T09:03:17.799Z,14.80
2022-12-16T09:06:21.823Z,14.80
2022-12-16T09:09:25.490Z,14.80
2022-12-16T09:12:29.575Z,14.90
2022-12-16T09:15:33.874Z,14.90
2022-12-16T09:18:37.870Z,14.90
2022-12-16T09:21:41.666Z,14.90
2022-12-16T09:24:45.668Z,14.90
2022-12-16T09:27:49.773Z,14.90
2022-12-16T09:30:54.282Z,14.90
2022-12-16T09:33:59.392Z,14.90
2022-12-16T09:37:03.285Z,14.90
2022-12-16T09:40:07.234Z,15.00
2022-12-16T09:43:42.941Z,15.00
2022-12-16T09:47:23.645Z,15.10
2022-12-16T09:50:44.547Z,15.20
2022-12-16T09:53:53.859Z,15.20
2022-12-16T09:56:57.836Z,15.30
2022-12-16T10:00:10.192Z,15.40
2022-12-16T10:03:16.646Z,15.40
2022-12-16T10:06:48.848Z,15.40
2022-12-16T10:10:17.465Z,15.50
2022-12-16T10:13:44.813Z,15.60
2022-12-16T10:17:21.270Z,15.70
2022-12-16T10:20:51.233Z,15.70
2022-12-16T10:24:32.479Z,15.80
2022-12-16T10:27:43.268Z,15.90
2022-12-16T10:30:48.338Z,16.00
2022-12-16T10:33:52.233Z,16.10
2022-12-16T10:36:58.220Z,16.10
2022-12-16T10:40:11.389Z,16.10
2022-12-16T10:43:24.025Z,16.10
2022-12-16T10:46:37.719Z,16.30
2022-12-16T10:49:41.666Z,16.40
2022-12-16T10:52:45.656Z,16.50
2022-12-16T10:56:14.936Z,16.40
2022-12-16T10:59:22.749Z,16.40
2022-12-16T11:02:41.965Z,16.60
2022-12-16T11:05:49.346Z,16.80
2022-12-16T11:08:55.544Z,16.80
2022-12-16T11:11:59.798Z,16.80
2022-12-16T11:18:38.508Z,16.60
2022-12-16T11:21:42.463Z,16.60
2022-12-16T11:24:46.938Z,16.60
2022-12-16T11:27:50.964Z,18.20
2022-12-16T11:30:55.311Z,17.00
2022-12-16T11:34:00.359Z,17.10
2022-12-16T11:37:08.447Z,17.20
2022-12-16T11:40:15.126Z,17.20
2022-12-16T11:43:22.295Z,17.10
2022-12-16T11:46:35.666Z,17.20
2022-12-16T11:49:50.250Z,17.30
2022-12-16T11:52:56.010Z,17.20
2022-12-16T11:56:11.115Z,17.30
2022-12-16T11:59:24.244Z,17.50
2022-12-16T12:02:43.937Z,17.60
2022-12-16T12:06:08.143Z,17.60
2022-12-16T12:09:29.658Z,17.70
2022-12-16T12:12:51.978Z,17.80
2022-12-16T12:16:23.648Z,17.90
2022-12-16T12:19:39.284Z,17.90
2022-12-16T12:22:58.366Z,18.00
2022-12-16T12:26:23.006Z,18.00
2022-12-16T12:30:05.020Z,18.10
2022-12-16T12:33:21.113Z,18.10
2022-12-16T12:36:51.525Z,18.20
2022-12-16T12:40:02.724Z,18.10
2022-12-16T12:43:15.213Z,18.10
2022-12-16T12:46:35.519Z,18.10
2022-12-16T12:50:18.590Z,18.10
2022-12-16T12:53:41.631Z,17.90
2022-12-16T12:57:08.432Z,17.70
2022-12-16T13:00:20.064Z,17.50
2022-12-16T13:03:42.494Z,17.40
2022-12-16T13:06:47.924Z,17.20
2022-12-16T13:09:57.594Z,17.10
2022-12-16T13:13:01.479Z,17.10
2022-12-16T13:16:05.528Z,17.00
2022-12-16T13:19:48.358Z,16.90
2022-12-16T13:22:56.344Z,16.80
2022-12-16T13:26:10.454Z,16.80
2022-12-16T13:29:46.992Z,16.70
2022-12-16T13:32:51.957Z,16.70
2022-12-16T13:36:10.104Z,16.70
2022-12-16T13:39:16.202Z,16.60
2022-12-16T13:42:20.240Z,16.60
2022-12-16T13:45:47.574Z,16.50
2022-12-16T13:48:54.606Z,16.50
2022-12-16T13:51:58.454Z,16.50
2022-12-16T13:55:09.902Z,16.40
2022-12-16T13:58:20.463Z,16.40
2022-12-16T14:01:31.311Z,16.40
2022-12-16T14:04:44.038Z,16.30
2022-12-16T14:07:52.692Z,16.30
2022-12-16T14:11:01.033Z,16.30
2022-12-16T14:14:42.841Z,16.20
2022-12-16T14:17:57.315Z,16.20
2022-12-16T14:21:16.812Z,16.20
2022-12-16T14:24:31.139Z,16.10
2022-12-16T14:27:41.111Z,16.10
2022-12-16T14:30:45.518Z,16.10
2022-12-16T14:33:49.514Z,16.00
2022-12-16T14:36:58.111Z,16.00
2022-12-16T14:40:02.157Z,16.00
2022-12-16T14:43:13.011Z,16.00
2022-12-16T14:46:17.952Z,15.90
2022-12-16T14:49:21.857Z,15.90
2022-12-16T14:52:43.214Z,15.80
2022-12-16T14:55:53.239Z,15.80
2022-12-16T14:58:57.092Z,15.80
2022-12-16T15:02:01.235Z,15.80
2022-12-16T15:05:05.736Z,15.70
2022-12-16T15:08:10.047Z,15.70
2022-12-16T15:11:13.938Z,15.70
2022-12-16T15:14:20.202Z,15.70
2022-12-16T15:17:24.835Z,15.60
2022-12-16T15:20:40.900Z,15.60
2022-12-16T15:23:50.594Z,15.10
2022-12-16T15:26:55.078Z,15.50
2022-12-16T15:30:00.492Z,15.50
2022-12-16T15:33:11.628Z,15.50
2022-12-16T15:36:20.941Z,15.50
2022-12-16T15:39:45.072Z,15.40
2022-12-16T15:42:52.127Z,15.40
2022-12-16T15:45:56.220Z,15.40
2022-12-16T15:49:00.622Z,15.40
2022-12-16T15:52:06.653Z,15.40
2022-12-16T15:55:12.598Z,15.30
2022-12-16T15:58:17.215Z,15.30
2022-12-16T16:01:21.383Z,15.30
2022-12-16T16:04:49.540Z,15.20
2022-12-16T16:07:55.174Z,15.20
2022-12-16T16:11:03.074Z,15.20
2022-12-16T16:14:13.927Z,15.20
2022-12-16T16:17:18.344Z,15.10
2022-12-16T16:20:23.371Z,15.10
2022-12-16T16:23:28.848Z,15.10
2022-12-16T16:26:35.637Z,15.10
2022-12-16T16:29:39.588Z,15.10
2022-12-16T16:32:43.458Z,15.00
2022-12-16T16:35:54.279Z,15.00
2022-12-16T16:38:58.311Z,15.10
2022-12-16T16:42:04.000Z,15.00
2022-12-16T16:45:08.335Z,14.90
2022-12-16T16:48:27.989Z,14.90
2022-12-16T16:51:45.647Z,14.90
2022-12-16T16:54:50.162Z,14.90
2022-12-16T16:57:56.716Z,14.90
2022-12-16T17:01:00.630Z,14.90
2022-12-16T17:04:04.548Z,14.90
2022-12-16T17:07:08.433Z,14.80
2022-12-16T17:10:12.395Z,14.80
2022-12-16T17:13:16.365Z,14.80
2022-12-16T17:16:20.320Z,14.80
2022-12-16T17:19:24.224Z,14.70
2022-12-16T17:22:28.257Z,14.70
2022-12-16T17:25:32.658Z,14.70
2022-12-16T17:28:36.552Z,14.70
2022-12-16T17:31:40.649Z,14.60
2022-12-16T17:34:44.543Z,14.60
2022-12-16T17:37:48.622Z,14.60
2022-12-16T17:40:52.719Z,14.70
2022-12-16T17:43:56.748Z,14.60
2022-12-16T17:47:00.737Z,14.60
2022-12-16T17:50:05.140Z,14.60
2022-12-16T17:53:15.695Z,14.60
2022-12-16T17:56:25.793Z,14.60
2022-12-16T17:59:29.975Z,14.70
2022-12-16T18:02:34.497Z,14.60
2022-12-16T18:05:44.224Z,14.60
2022-12-16T18:08:50.925Z,14.60
2022-12-16T18:11:55.211Z,14.60
2022-12-16T18:14:59.398Z,14.60
2022-12-16T18:18:07.438Z,14.60
2022-12-16T18:21:11.804Z,14.60
2022-12-16T18:24:15.763Z,14.60
2022-12-16T18:27:20.286Z,14.60
2022-12-16T18:30:24.362Z,14.70
2022-12-16T18:33:28.298Z,14.70
2022-12-16T18:36:32.152Z,14.70
2022-12-16T18:39:36.159Z,14.70
2022-12-16T18:42:39.996Z,14.70
2022-12-16T18:45:44.094Z,14.70
2022-12-16T18:48:47.892Z,14.60
2022-12-16T18:51:52.185Z,14.60
2022-12-16T18:54:56.149Z,14.60
2022-12-16T18:57:59.982Z,14.60
2022-12-16T19:01:04.266Z,14.60
2022-12-16T19:04:08.609Z,14.60
2022-12-16T19:07:12.484Z,14.60
2022-12-16T19:10:16.310Z,14.60
2022-12-16T19:13:20.152Z,14.60
2022-12-16T19:16:24.158Z,14.60
2022-12-16T19:19:28.146Z,14.60
2022-12-16T19:22:32.136Z,14.60
2022-12-16T19:25:36.158Z,14.50
2022-12-16T19:28:40.332Z,14.60
2022-12-16T19:31:46.099Z,14.60
2022-12-16T19:34:49.900Z,14.50
2022-12-16T19:37:53.774Z,14.60
2022-12-16T19:40:58.543Z,14.60
2022-12-16T19:44:06.078Z,14.60
2022-12-16T19:47:10.846Z,14.60
2022-12-16T19:50:14.733Z,14.60
2022-12-16T19:53:18.632Z,14.60
2022-12-16T19:56:22.573Z,14.50
2022-12-16T19:59:26.553Z,14.50
2022-12-16T20:02:31.296Z,14.60
2022-12-16T20:05:35.673Z,14.60
2022-12-16T20:08:39.528Z,14.50
2022-12-16T20:11:43.331Z,14.50
2022-12-16T20:14:47.342Z,14.50
2022-12-16T20:17:51.836Z,14.50
2022-12-16T20:20:55.511Z,14.50
2022-12-16T20:23:59.474Z,14.50
2022-12-16T20:27:03.376Z,14.60
2022-12-16T20:30:07.445Z,14.50
2022-12-16T20:33:11.430Z,14.60
2022-12-16T20:36:20.991Z,14.50
2022-12-16T20:39:24.981Z,14.50
2022-12-16T20:42:42.727Z,14.50
2022-12-16T20:45:47.072Z,14.50
2022-12-16T20:48:50.969Z,14.50
2022-12-16T20:51:56.214Z,14.50
2022-12-16T20:55:00.418Z,14.50
2022-12-16T20:58:04.351Z,14.40
2022-12-16T21:01:12.816Z,14.50
2022-12-16T21:04:16.621Z,14.40
2022-12-16T21:07:20.539Z,14.50
2022-12-16T21:10:28.187Z,14.40
2022-12-16T21:13:34.079Z,14.40
2022-12-16T21:16:38.061Z,14.40
2022-12-16T21:19:41.965Z,14.40
2022-12-16T21:22:45.839Z,14.40
2022-12-16T21:25:49.677Z,14.40
2022-12-16T21:28:54.089Z,14.40
2022-12-16T21:32:00.615Z,14.40
2022-12-16T21:35:04.569Z,14.40
2022-12-16T21:38:10.805Z,14.40
2022-12-16T21:41:15.394Z,14.40
2022-12-16T21:44:19.449Z,14.40
2022-12-16T21:47:23.379Z,14.40
2022-12-16T21:50:27.443Z,14.40
2022-12-16T21:53:31.383Z,14.40
2022-12-16T21:56:36.006Z,14.30
2022-12-16T21:59:39.878Z,14.30
2022-12-16T22:02:43.596Z,14.30
2022-12-16T22:05:47.432Z,14.20
2022-12-16T22:08:51.757Z,14.10
2022-12-16T22:11:56.341Z,14.10
2022-12-16T22:15:00.530Z,14.00
2022-12-16T22:18:04.634Z,14.00
2022-12-16T22:21:20.828Z,14.00
2022-12-16T22:24:24.848Z,14.00
2022-12-16T22:27:28.681Z,13.90
2022-12-16T22:30:32.548Z,13.90
2022-12-16T22:33:36.434Z,13.90
2022-12-16T22:36:40.596Z,13.80
2022-12-16T22:43:08.552Z,13.80
2022-12-16T22:46:18.600Z,13.70
2022-12-16T22:49:22.272Z,13.70
2022-12-16T22:52:26.264Z,13.70
2022-12-16T22:55:30.193Z,13.70
2022-12-16T22:58:33.991Z,13.60
2022-12-16T23:01:37.944Z,13.60
2022-12-16T23:04:42.011Z,13.60
2022-12-16T23:07:45.756Z,13.60
2022-12-16T23:10:49.692Z,13.50
2022-12-16T23:13:53.625Z,13.60
2022-12-16T23:16:57.615Z,13.60
2022-12-16T23:20:01.522Z,13.50
2022-12-16T23:23:05.428Z,13.50
2022-12-16T23:26:20.530Z,13.50
2022-12-16T23:29:25.282Z,13.50
2022-12-16T23:32:36.736Z,13.50
2022-12-16T23:35:40.759Z,13.50
2022-12-16T23:38:44.654Z,13.50
2022-12-16T23:41:48.412Z,13.40
2022-12-16T23:44:56.348Z,13.40
2022-12-16T23:48:00.676Z,13.40
2022-12-16T23:51:04.651Z,13.40
2022-12-16T23:54:08.631Z,13.40
2022-12-16T23:57:12.434Z,13.40
